createdAt,value
2022-10-06T00:01:17.030Z,101019.63
2022-10-06T00:03:46.382Z,101015.03
2022-10-06T00:06:16.609Z,101018.91
2022-10-06T00:08:46.044Z,101010.37
2022-10-06T00:11:15.340Z,101020.91
2022-10-06T00:13:43.870Z,101018.44
2022-10-06T00:16:15.184Z,101016.44
2022-10-06T00:18:44.635Z,101020.59
2022-10-06T00:21:12.839Z,101013.00
2022-10-06T00:23:40.944Z,101021.03
2022-10-06T00:26:17.201Z,101016.16
2022-10-06T00:28:49.416Z,101015.44
2022-10-06T00:31:19.738Z,101012.28
2022-10-06T00:33:50.105Z,101016.25
2022-10-06T00:36:19.315Z,101012.41
2022-10-06T00:38:47.678Z,101012.28
2022-10-06T00:41:17.735Z,100997.84
2022-10-06T00:43:54.670Z,101002.44
2022-10-06T00:46:34.590Z,101012.84
2022-10-06T00:49:25.734Z,101001.38
2022-10-06T00:52:08.426Z,101004.41
2022-10-06T00:54:37.753Z,101009.53
2022-10-06T00:57:06.901Z,101006.44
2022-10-06T00:59:36.995Z,100993.75
2022-10-06T01:02:08.434Z,101005.69
2022-10-06T01:04:41.007Z,101005.44
2022-10-06T01:07:10.276Z,101005.69
2022-10-06T01:09:39.034Z,101005.22
2022-10-06T01:12:08.958Z,101009.81
2022-10-06T01:14:39.213Z,101012.19
2022-10-06T01:17:19.722Z,101015.12
2022-10-06T01:20:00.673Z,101013.94
2022-10-06T01:22:39.023Z,101016.97
2022-10-06T01:25:10.040Z,101018.75
2022-10-06T01:27:41.270Z,101022.91
2022-10-06T01:30:16.230Z,101022.91
2022-10-06T01:32:45.786Z,101024.06
2022-10-06T01:35:14.394Z,101023.37
2022-10-06T01:37:42.555Z,101021.47
2022-10-06T01:40:11.008Z,101016.72
2022-10-06T01:42:39.353Z,101025.94
2022-10-06T01:45:08.343Z,101024.75
2022-10-06T01:47:36.640Z,101037.66
2022-10-06T01:50:06.651Z,101037.16
2022-10-06T01:52:35.890Z,101030.47
2022-10-06T01:55:04.873Z,101024.88
2022-10-06T01:57:39.116Z,101035.28
2022-10-06T02:00:11.288Z,101025.25
2022-10-06T02:02:41.184Z,101026.81
2022-10-06T02:05:09.900Z,101015.44
2022-10-06T02:07:39.019Z,101018.69
2022-10-06T02:10:08.013Z,101018.78
2022-10-06T02:12:37.004Z,101021.69
2022-10-06T02:15:06.960Z,101017.75
2022-10-06T02:17:36.030Z,101021.41
2022-10-06T02:20:07.481Z,101026.59
2022-10-06T02:22:39.996Z,101023.34
2022-10-06T02:25:08.469Z,101025.81
2022-10-06T02:27:38.839Z,101022.47
2022-10-06T02:30:08.624Z,101028.81
2022-10-06T02:32:40.255Z,101033.16
2022-10-06T02:35:10.235Z,101034.03
2022-10-06T02:37:40.854Z,101031.13
2022-10-06T02:40:10.882Z,101027.72
2022-10-06T02:42:39.899Z,101026.66
2022-10-06T02:45:08.843Z,101024.66
2022-10-06T02:47:38.448Z,101017.53
2022-10-06T02:50:08.454Z,101024.28
2022-10-06T02:52:38.311Z,101013.56
2022-10-06T02:55:07.575Z,101014.09
2022-10-06T02:57:35.780Z,101016.78
2022-10-06T03:00:08.933Z,101022.41
2022-10-06T03:02:37.506Z,101018.12
2022-10-06T03:05:06.450Z,101027.37
2022-10-06T03:07:34.591Z,101031.53
2022-10-06T03:10:02.873Z,101023.75
2022-10-06T03:12:31.993Z,101035.72
2022-10-06T03:15:00.105Z,101032.38
2022-10-06T03:17:28.244Z,101026.56
2022-10-06T03:19:58.022Z,101030.94
2022-10-06T03:22:26.187Z,101037.97
2022-10-06T03:24:54.661Z,101031.22
2022-10-06T03:27:23.231Z,101037.88
2022-10-06T03:29:52.928Z,101035.78
2022-10-06T03:32:22.942Z,101031.13
2022-10-06T03:34:53.372Z,101035.38
2022-10-06T03:37:22.860Z,101037.66
2022-10-06T03:39:52.119Z,101037.03
2022-10-06T03:42:20.982Z,101032.03
2022-10-06T03:44:49.563Z,101026.56
2022-10-06T03:47:17.867Z,101029.87
2022-10-06T03:49:50.397Z,101029.56
2022-10-06T03:52:23.617Z,101041.53
2022-10-06T03:54:55.548Z,101035.25
2022-10-06T03:57:24.135Z,101043.47
2022-10-06T03:59:52.454Z,101037.88
2022-10-06T04:02:21.034Z,101049.50
2022-10-06T04:04:49.478Z,101050.44
2022-10-06T04:07:17.877Z,101049.59
2022-10-06T04:09:51.181Z,101044.41
2022-10-06T04:12:22.697Z,101050.31
2022-10-06T04:14:51.002Z,101044.00
2022-10-06T04:17:20.180Z,101056.25
2022-10-06T04:19:48.658Z,101051.66
2022-10-06T04:22:16.706Z,101054.06
2022-10-06T04:24:45.450Z,101055.62
2022-10-06T04:27:28.816Z,101054.03
2022-10-06T04:29:58.544Z,101042.62
2022-10-06T04:32:27.386Z,101044.00
2022-10-06T04:34:56.315Z,101053.72
2022-10-06T04:37:25.046Z,101050.44
2022-10-06T04:39:55.240Z,101053.22
2022-10-06T04:42:23.513Z,101049.69
2022-10-06T04:44:52.092Z,101052.81
2022-10-06T04:47:20.236Z,101054.37
2022-10-06T04:49:49.644Z,101045.34
2022-10-06T04:52:18.199Z,101054.03
2022-10-06T04:54:46.859Z,101041.56
2022-10-06T04:57:15.080Z,101050.41
2022-10-06T05:00:08.828Z,101037.34
2022-10-06T05:02:40.256Z,101054.75
2022-10-06T05:05:09.656Z,101048.53
2022-10-06T05:07:38.146Z,101054.41
2022-10-06T05:10:06.413Z,101057.44
2022-10-06T05:12:35.296Z,101057.87
2022-10-06T05:15:04.950Z,101063.13
2022-10-06T05:17:33.368Z,101052.47
2022-10-06T05:20:08.779Z,101061.50
2022-10-06T05:22:36.993Z,101053.81
2022-10-06T05:25:05.776Z,101065.53
2022-10-06T05:27:34.011Z,101060.03
2022-10-06T05:30:03.271Z,101060.87
2022-10-06T05:32:35.929Z,101062.97
2022-10-06T05:35:05.387Z,101062.25
2022-10-06T05:37:33.878Z,101058.31
2022-10-06T05:40:02.885Z,101061.00
2022-10-06T05:42:31.672Z,101068.50
2022-10-06T05:45:03.124Z,101067.66
2022-10-06T05:47:31.837Z,101066.03
2022-10-06T05:49:59.997Z,101068.63
2022-10-06T05:52:28.459Z,101070.41
2022-10-06T05:54:56.621Z,101067.69
2022-10-06T05:57:25.090Z,101072.28
2022-10-06T05:59:53.429Z,101078.25
2022-10-06T06:02:21.777Z,101078.78
2022-10-06T06:04:50.210Z,101081.72
2022-10-06T06:07:18.545Z,101080.03
2022-10-06T06:09:47.694Z,101086.56
2022-10-06T06:12:16.314Z,101082.22
2022-10-06T06:15:03.570Z,101085.94
2022-10-06T06:17:33.525Z,101094.56
2022-10-06T06:20:03.044Z,101108.56
2022-10-06T06:22:31.435Z,101107.84
2022-10-06T06:24:59.949Z,101093.97
2022-10-06T06:27:28.778Z,101106.28
2022-10-06T06:29:58.771Z,101105.84
2022-10-06T06:32:27.908Z,101106.66
2022-10-06T06:34:57.399Z,101105.72
2022-10-06T06:37:26.259Z,101123.09
2022-10-06T06:39:56.511Z,101116.22
2022-10-06T06:42:25.127Z,101124.50
2022-10-06T06:44:54.325Z,101130.00
2022-10-06T06:47:25.967Z,101131.31
2022-10-06T06:49:58.945Z,101129.25
2022-10-06T06:52:27.478Z,101130.12
2022-10-06T06:54:57.172Z,101134.87
2022-10-06T06:57:25.691Z,101127.16
2022-10-06T06:59:56.201Z,101127.34
2022-10-06T07:02:29.821Z,101138.25
2022-10-06T07:04:58.284Z,101142.56
2022-10-06T07:07:26.871Z,101142.37
2022-10-06T07:09:56.467Z,101140.28
2022-10-06T07:12:25.825Z,101152.34
2022-10-06T07:15:13.297Z,101153.31
2022-10-06T07:18:00.554Z,101155.22
2022-10-06T07:20:48.093Z,101150.84
2022-10-06T07:23:37.734Z,101141.00
2022-10-06T07:26:07.218Z,101147.41
2022-10-06T07:28:35.621Z,101153.69
2022-10-06T07:31:04.323Z,101152.56
2022-10-06T07:33:33.017Z,101147.66
2022-10-06T07:36:02.663Z,101155.31
2022-10-06T07:38:31.459Z,101153.00
2022-10-06T07:41:18.505Z,101144.25
2022-10-06T07:43:48.140Z,101150.00
2022-10-06T07:46:19.238Z,101155.66
2022-10-06T07:48:49.394Z,101147.91
2022-10-06T07:51:19.481Z,101155.69
2022-10-06T07:53:51.340Z,101156.84
2022-10-06T07:56:21.056Z,101153.84
2022-10-06T07:58:51.141Z,101158.50
2022-10-06T08:01:20.739Z,101165.19
2022-10-06T08:03:50.582Z,101158.50
2022-10-06T08:06:19.843Z,101147.31
2022-10-06T08:08:52.583Z,101150.41
2022-10-06T08:11:22.923Z,101156.28
2022-10-06T08:13:52.272Z,101157.84
2022-10-06T08:16:23.065Z,101160.88
2022-10-06T08:18:53.625Z,101161.16
2022-10-06T08:21:28.012Z,101163.53
2022-10-06T08:23:58.245Z,101157.41
2022-10-06T08:26:27.910Z,101171.84
2022-10-06T08:29:03.248Z,101177.78
2022-10-06T08:31:32.440Z,101178.47
2022-10-06T08:34:01.613Z,101177.50
2022-10-06T08:36:32.620Z,101176.88
2022-10-06T08:39:01.639Z,101186.41
2022-10-06T08:41:32.952Z,101178.88
2022-10-06T08:44:18.518Z,101176.78
2022-10-06T08:47:02.600Z,101178.88
2022-10-06T08:49:46.589Z,101177.56
2022-10-06T08:52:56.089Z,101172.03
2022-10-06T08:55:31.772Z,101178.12
2022-10-06T08:58:29.380Z,101174.09
2022-10-06T09:01:23.506Z,101175.53
2022-10-06T09:03:54.912Z,101175.13
2022-10-06T09:06:45.986Z,101170.00
2022-10-06T09:09:43.474Z,101171.88
2022-10-06T09:12:40.180Z,101170.13
2022-10-06T09:15:35.912Z,101169.25
2022-10-06T09:18:16.108Z,101169.91
2022-10-06T09:20:57.519Z,101172.37
2022-10-06T09:23:48.956Z,101167.66
2022-10-06T09:26:23.000Z,101176.03
2022-10-06T09:28:52.704Z,101173.81
2022-10-06T09:31:27.362Z,101183.41
2022-10-06T09:34:04.594Z,101169.94
2022-10-06T09:36:32.861Z,101183.59
2022-10-06T09:39:01.456Z,101181.41
2022-10-06T09:41:37.649Z,101171.53
2022-10-06T09:44:29.316Z,101187.97
2022-10-06T09:46:57.392Z,101183.69
2022-10-06T09:49:31.488Z,101194.75
2022-10-06T09:52:01.213Z,101192.91
2022-10-06T09:54:34.598Z,101189.22
2022-10-06T09:57:16.477Z,101186.88
2022-10-06T09:59:46.984Z,101181.69
2022-10-06T10:02:41.281Z,101176.59
2022-10-06T10:05:21.462Z,101185.28
2022-10-06T10:08:02.391Z,101184.81
2022-10-06T10:10:30.897Z,101179.03
2022-10-06T10:13:00.716Z,101180.50
2022-10-06T10:15:33.158Z,101182.37
2022-10-06T10:18:04.375Z,101171.00
2022-10-06T10:20:37.093Z,101171.25
2022-10-06T10:23:38.949Z,101162.75
2022-10-06T10:26:27.626Z,101170.22
2022-10-06T10:29:33.846Z,101166.81
2022-10-06T10:32:16.192Z,101165.63
2022-10-06T10:34:55.792Z,101169.13
2022-10-06T10:37:36.579Z,101164.69
2022-10-06T10:40:24.632Z,101160.62
2022-10-06T10:43:21.683Z,101154.75
2022-10-06T10:45:57.825Z,101160.59
2022-10-06T10:48:39.158Z,101157.88
2022-10-06T10:51:23.121Z,101161.03
2022-10-06T10:54:17.615Z,101163.50
2022-10-06T10:56:49.181Z,101160.53
2022-10-06T10:59:25.149Z,101160.09
2022-10-06T11:02:00.988Z,101164.28
2022-10-06T11:04:29.664Z,101156.25
2022-10-06T11:07:21.309Z,101151.38
2022-10-06T11:10:21.613Z,101152.75
2022-10-06T11:13:14.254Z,101148.22
2022-10-06T11:16:20.182Z,101148.41
2022-10-06T11:19:27.711Z,101139.63
2022-10-06T11:22:20.124Z,101142.63
2022-10-06T11:25:03.166Z,101152.41
2022-10-06T11:27:56.071Z,101141.72
2022-10-06T11:30:26.768Z,101140.69
2022-10-06T11:33:08.015Z,101143.19
2022-10-06T11:35:41.667Z,101136.03
2022-10-06T11:38:21.990Z,101133.13
2022-10-06T11:41:23.134Z,101130.94
2022-10-06T11:44:19.254Z,101128.09
2022-10-06T11:47:07.222Z,101116.69
2022-10-06T11:49:37.040Z,101123.53
2022-10-06T11:52:10.489Z,101122.53
2022-10-06T11:54:52.554Z,101126.19
2022-10-06T11:57:29.441Z,101120.88
2022-10-06T12:00:05.114Z,101119.69
2022-10-06T12:02:40.847Z,101122.88
2022-10-06T12:05:28.902Z,101122.31
2022-10-06T12:08:00.710Z,101120.03
2022-10-06T12:10:29.486Z,101123.50
2022-10-06T12:14:26.637Z,101119.28
2022-10-06T12:19:27.113Z,101127.09
2022-10-06T12:21:59.902Z,101129.50
2022-10-06T12:24:38.023Z,101119.56
2022-10-06T12:27:25.119Z,101119.72
2022-10-06T12:30:06.373Z,101115.28
2022-10-06T12:32:50.082Z,101118.34
2022-10-06T12:35:26.068Z,101123.28
2022-10-06T12:37:58.461Z,101121.66
2022-10-06T12:40:47.767Z,101110.47
2022-10-06T12:43:19.182Z,101106.84
2022-10-06T12:45:48.670Z,101107.31
2022-10-06T12:48:29.039Z,101109.62
2022-10-06T12:51:12.613Z,101110.66
2022-10-06T12:54:02.716Z,101105.97
2022-10-06T12:56:37.126Z,101100.25
2022-10-06T12:59:35.718Z,101093.56
2022-10-06T13:02:17.601Z,101091.28
2022-10-06T13:05:01.611Z,101085.19
2022-10-06T13:07:32.270Z,101092.94
2022-10-06T13:10:14.078Z,101091.66
2022-10-06T13:12:47.579Z,101088.97
2022-10-06T13:15:29.758Z,101090.63
2022-10-06T13:18:09.645Z,101083.63
2022-10-06T13:20:59.153Z,101084.09
2022-10-06T13:23:27.546Z,101084.84
2022-10-06T13:25:59.008Z,101080.16
2022-10-06T13:28:33.201Z,101084.63
2022-10-06T13:31:12.006Z,101084.34
2022-10-06T13:33:42.511Z,101080.91
2022-10-06T13:36:12.486Z,101083.81
2022-10-06T13:38:41.834Z,101074.63
2022-10-06T13:41:47.454Z,101074.63
2022-10-06T13:44:18.978Z,101076.66
2022-10-06T13:46:53.341Z,101077.28
2022-10-06T13:49:24.892Z,101076.19
2022-10-06T13:51:55.136Z,101073.38
2022-10-06T13:54:31.863Z,101070.09
2022-10-06T13:57:00.223Z,101069.91
2022-10-06T13:59:33.575Z,101072.31
2022-10-06T14:02:16.942Z,101075.31
2022-10-06T14:05:23.713Z,101078.88
2022-10-06T14:07:54.021Z,101079.00
2022-10-06T14:10:55.928Z,101084.28
2022-10-06T14:13:28.330Z,101088.03
2022-10-06T14:16:18.122Z,101080.47
2022-10-06T14:21:45.743Z,101089.69
2022-10-06T14:24:16.536Z,101086.56
2022-10-06T14:26:46.174Z,101085.16
2022-10-06T14:29:14.903Z,101096.28
2022-10-06T14:31:44.196Z,101104.78
2022-10-06T14:34:15.455Z,101096.91
2022-10-06T14:36:55.391Z,101099.56
2022-10-06T14:39:24.024Z,101107.53
2022-10-06T14:41:52.016Z,101105.38
2022-10-06T14:44:20.183Z,101102.28
2022-10-06T14:46:49.001Z,101106.78
2022-10-06T14:49:17.551Z,101111.91
2022-10-06T14:51:45.860Z,101108.97
2022-10-06T14:54:15.110Z,101110.97
2022-10-06T14:56:43.161Z,101122.09
2022-10-06T14:59:17.055Z,101122.78
2022-10-06T15:01:46.839Z,101120.00
2022-10-06T15:04:18.852Z,101122.13
2022-10-06T15:07:06.332Z,101121.63
2022-10-06T15:09:35.781Z,101131.03
2022-10-06T15:12:04.681Z,101122.00
2022-10-06T15:14:34.320Z,101134.19
2022-10-06T15:17:02.385Z,101131.87
2022-10-06T15:19:30.864Z,101129.25
2022-10-06T15:21:58.936Z,101138.31
2022-10-06T15:24:27.190Z,101129.56
2022-10-06T15:27:14.004Z,101132.69
2022-10-06T15:29:42.565Z,101132.37
2022-10-06T15:32:11.360Z,101144.38
2022-10-06T15:34:39.448Z,101131.34
2022-10-06T15:37:08.092Z,101144.19
2022-10-06T15:39:38.070Z,101134.50
2022-10-06T15:42:06.792Z,101132.03
2022-10-06T15:44:35.700Z,101151.94
2022-10-06T15:47:06.031Z,101148.47
2022-10-06T15:49:38.525Z,101152.09
2022-10-06T15:52:08.322Z,101153.91
2022-10-06T15:54:38.666Z,101157.50
2022-10-06T15:57:09.688Z,101160.44
2022-10-06T15:59:40.026Z,101162.75
2022-10-06T16:02:15.964Z,101161.59
2022-10-06T16:05:06.912Z,101156.44
2022-10-06T16:07:35.273Z,101159.25
2022-10-06T16:10:03.998Z,101163.50
2022-10-06T16:12:32.885Z,101163.16
2022-10-06T16:15:01.096Z,101165.31
2022-10-06T16:17:30.729Z,101170.84
2022-10-06T16:19:59.161Z,101168.87
2022-10-06T16:22:27.537Z,101176.34
2022-10-06T16:24:55.912Z,101174.69
2022-10-06T16:27:23.901Z,101176.16
2022-10-06T16:29:52.001Z,101180.38
2022-10-06T16:32:20.351Z,101175.56
2022-10-06T16:34:50.479Z,101182.25
2022-10-06T16:37:19.047Z,101184.84
2022-10-06T16:39:47.777Z,101191.59
2022-10-06T16:42:16.703Z,101193.06
2022-10-06T16:44:44.918Z,101199.19
2022-10-06T16:47:13.377Z,101201.47
2022-10-06T16:49:41.503Z,101207.22
2022-10-06T16:52:09.811Z,101205.56
2022-10-06T16:54:38.197Z,101210.28
2022-10-06T16:57:06.858Z,101213.44
2022-10-06T16:59:35.136Z,101211.62
2022-10-06T17:02:03.509Z,101207.13
2022-10-06T17:04:31.839Z,101210.75
2022-10-06T17:07:01.923Z,101210.22
2022-10-06T17:09:30.504Z,101211.56
2022-10-06T17:12:03.937Z,101214.19
2022-10-06T17:14:34.585Z,101220.50
2022-10-06T17:17:02.717Z,101215.72
2022-10-06T17:19:30.959Z,101210.41
2022-10-06T17:22:00.296Z,101220.37
2022-10-06T17:24:29.580Z,101221.50
2022-10-06T17:26:58.532Z,101227.22
2022-10-06T17:29:27.508Z,101224.59
2022-10-06T17:31:59.351Z,101228.03
2022-10-06T17:34:33.475Z,101232.19
2022-10-06T17:37:02.744Z,101230.53
2022-10-06T17:39:31.994Z,101234.94
2022-10-06T17:42:00.175Z,101237.28
2022-10-06T17:44:29.722Z,101234.09
2022-10-06T17:47:00.509Z,101230.13
2022-10-06T17:49:32.685Z,101227.69
2022-10-06T17:52:01.531Z,101234.75
2022-10-06T17:54:33.563Z,101226.78
2022-10-06T17:57:02.669Z,101233.97
2022-10-06T17:59:31.956Z,101234.38
2022-10-06T18:02:03.028Z,101227.84
2022-10-06T18:04:31.719Z,101236.16
2022-10-06T18:07:00.159Z,101231.44
2022-10-06T18:09:28.362Z,101225.94
2022-10-06T18:11:58.732Z,101221.84
2022-10-06T18:14:30.349Z,101225.84
2022-10-06T18:17:01.050Z,101223.56
2022-10-06T18:19:35.064Z,101227.13
2022-10-06T18:22:06.945Z,101225.38
2022-10-06T18:24:34.960Z,101237.53
2022-10-06T18:27:05.773Z,101237.37
2022-10-06T18:29:37.132Z,101235.88
2022-10-06T18:37:47.881Z,101241.41
2022-10-06T18:40:16.559Z,101240.78
2022-10-06T18:42:44.902Z,101239.25
2022-10-06T18:45:36.772Z,101250.56
2022-10-06T18:48:28.264Z,101236.06
2022-10-06T18:51:01.573Z,101243.31
2022-10-06T18:53:32.790Z,101253.78
2022-10-06T18:56:00.933Z,101243.81
2022-10-06T18:58:29.723Z,101247.69
2022-10-06T19:01:07.836Z,101247.41
2022-10-06T19:03:37.730Z,101247.69
2022-10-06T19:06:06.246Z,101239.84
2022-10-06T19:08:34.482Z,101241.38
2022-10-06T19:11:26.074Z,101248.94
2022-10-06T19:13:56.289Z,101253.38
2022-10-06T19:16:25.385Z,101258.75
2022-10-06T19:18:55.361Z,101259.88
2022-10-06T19:21:23.691Z,101260.25
2022-10-06T19:23:53.030Z,101263.44
2022-10-06T19:26:22.844Z,101263.16
2022-10-06T19:28:51.155Z,101266.03
2022-10-06T19:31:20.286Z,101267.97
2022-10-06T19:33:48.559Z,101265.19
2022-10-06T19:36:17.080Z,101263.28
2022-10-06T19:38:45.596Z,101269.34
2022-10-06T19:41:32.686Z,101262.03
2022-10-06T19:44:02.823Z,101265.88
2022-10-06T19:46:30.982Z,101268.09
2022-10-06T19:49:05.723Z,101269.31
2022-10-06T19:51:35.405Z,101271.91
2022-10-06T19:54:04.463Z,101280.69
2022-10-06T19:56:33.319Z,101285.91
2022-10-06T19:59:05.373Z,101284.13
2022-10-06T20:01:34.466Z,101288.59
2022-10-06T20:04:03.938Z,101290.34
2022-10-06T20:06:35.454Z,101283.72
2022-10-06T20:09:09.017Z,101277.50
2022-10-06T20:11:40.215Z,101288.25
2022-10-06T20:14:11.712Z,101297.59
2022-10-06T20:16:42.027Z,101297.87
2022-10-06T20:19:12.035Z,101297.16
2022-10-06T20:21:40.488Z,101298.22
2022-10-06T20:24:22.669Z,101299.78
2022-10-06T20:26:52.416Z,101303.59
2022-10-06T20:29:25.920Z,101305.75
2022-10-06T20:31:56.522Z,101298.88
2022-10-06T20:34:31.652Z,101301.50
2022-10-06T20:37:02.660Z,101300.88
2022-10-06T20:39:51.737Z,101305.34
2022-10-06T20:42:21.418Z,101308.31
2022-10-06T20:44:49.464Z,101312.44
2022-10-06T20:47:17.835Z,101311.59
2022-10-06T20:49:46.242Z,101300.59
2022-10-06T20:52:14.855Z,101302.34
2022-10-06T20:54:43.567Z,101314.00
2022-10-06T20:57:12.136Z,101306.50
2022-10-06T20:59:40.312Z,101296.94
2022-10-06T21:02:10.450Z,101302.88
2022-10-06T21:04:43.412Z,101299.25
2022-10-06T21:07:11.672Z,101306.31
2022-10-06T21:09:40.660Z,101299.13
2022-10-06T21:12:08.813Z,101300.75
2022-10-06T21:14:37.732Z,101293.50
2022-10-06T21:17:07.741Z,101302.00
2022-10-06T21:19:37.689Z,101304.59
2022-10-06T21:22:06.622Z,101305.09
2022-10-06T21:24:34.922Z,101310.41
2022-10-06T21:27:03.282Z,101316.75
2022-10-06T21:29:31.965Z,101311.87
2022-10-06T21:32:00.469Z,101311.47
2022-10-06T21:34:28.447Z,101307.38
2022-10-06T21:36:57.641Z,101300.12
2022-10-06T21:39:25.921Z,101304.69
2022-10-06T21:41:54.045Z,101313.34
2022-10-06T21:44:22.556Z,101311.00
2022-10-06T21:46:53.233Z,101308.00
2022-10-06T21:49:23.320Z,101307.84
2022-10-06T21:51:53.986Z,101307.50
2022-10-06T21:54:23.278Z,101308.19
2022-10-06T21:56:51.867Z,101302.06
2022-10-06T21:59:20.942Z,101313.19
2022-10-06T22:01:51.882Z,101312.94
2022-10-06T22:04:20.443Z,101320.81
2022-10-06T22:06:50.258Z,101166.38
2022-10-06T22:09:19.888Z,101316.44
2022-10-06T22:11:49.345Z,101314.47
2022-10-06T22:14:18.940Z,101316.69
2022-10-06T22:16:47.329Z,101321.78
2022-10-06T22:19:16.719Z,101316.09
2022-10-06T22:21:47.364Z,101321.91
2022-10-06T22:24:20.473Z,101318.25
2022-10-06T22:26:48.911Z,101315.88
2022-10-06T22:29:19.164Z,101305.66
2022-10-06T22:31:48.645Z,101317.03
2022-10-06T22:34:19.417Z,101316.78
2022-10-06T22:36:48.098Z,101312.16
2022-10-06T22:39:16.667Z,101310.50
2022-10-06T22:41:45.430Z,101303.72
2022-10-06T22:44:13.873Z,101317.03
2022-10-06T22:46:41.892Z,101319.19
2022-10-06T22:49:10.650Z,101313.62
2022-10-06T22:51:39.141Z,101312.78
2022-10-06T22:54:07.442Z,101303.28
2022-10-06T22:56:35.576Z,101309.47
2022-10-06T22:59:03.930Z,101309.59
2022-10-06T23:01:32.151Z,101299.13
2022-10-06T23:04:00.462Z,101291.78
2022-10-06T23:06:31.940Z,101300.44
2022-10-06T23:09:00.227Z,101301.63
2022-10-06T23:11:29.450Z,101297.00
2022-10-06T23:13:57.530Z,101286.09
2022-10-06T23:16:25.841Z,101276.22
2022-10-06T23:18:55.188Z,101286.69
2022-10-06T23:21:27.512Z,101288.00
2022-10-06T23:23:59.714Z,101290.63
2022-10-06T23:26:29.055Z,101290.25
2022-10-06T23:29:00.557Z,101283.88
2022-10-06T23:31:29.573Z,101287.16
2022-10-06T23:33:58.379Z,101291.13
2022-10-06T23:36:26.869Z,101287.87
2022-10-06T23:38:55.976Z,101291.56
2022-10-06T23:41:24.311Z,101290.94
2022-10-06T23:43:52.773Z,101288.22
2022-10-06T23:46:20.962Z,101293.22
2022-10-06T23:48:49.407Z,101282.66
2022-10-06T23:51:17.901Z,101290.25
2022-10-06T23:53:46.352Z,101295.00
2022-10-06T23:56:15.129Z,101296.91
2022-10-06T23:58:43.257Z,101289.78
